sensor_id;sensor_type;location;lat;lon;timestamp;temperature;humidity
52669;DHT22;59898;52.786;6.892;2022-09-24T00:03:12;14.00;99.90
52669;DHT22;59898;52.786;6.892;2022-09-24T00:06:36;13.90;99.90
52669;DHT22;59898;52.786;6.892;2022-09-24T00:09:57;14.00;99.90
52669;DHT22;59898;52.786;6.892;2022-09-24T00:13:17;14.00;99.90
52669;DHT22;59898;52.786;6.892;2022-09-24T00:16:40;14.00;99.90
52669;DHT22;59898;52.786;6.892;2022-09-24T00:20:01;13.90;99.90
52669;DHT22;59898;52.786;6.892;2022-09-24T00:23:21;13.90;99.90
52669;DHT22;59898;52.786;6.892;2022-09-24T00:26:42;13.90;99.90
52669;DHT22;59898;52.786;6.892;2022-09-24T00:30:10;13.90;99.90
52669;DHT22;59898;52.786;6.892;2022-09-24T00:33:30;13.90;99.90
52669;DHT22;59898;52.786;6.892;2022-09-24T00:36:53;14.00;99.90
52669;DHT22;59898;52.786;6.892;2022-09-24T00:40:14;14.00;99.90
52669;DHT22;59898;52.786;6.892;2022-09-24T00:43:36;14.00;99.90
52669;DHT22;59898;52.786;6.892;2022-09-24T00:46:57;14.00;99.90
52669;DHT22;59898;52.786;6.892;2022-09-24T00:50:23;14.00;99.90
52669;DHT22;59898;52.786;6.892;2022-09-24T00:53:48;14.00;99.90
52669;DHT22;59898;52.786;6.892;2022-09-24T00:57:11;14.10;99.90
52669;DHT22;59898;52.786;6.892;2022-09-24T01:00:33;14.00;99.90
52669;DHT22;59898;52.786;6.892;2022-09-24T01:03:57;14.00;99.90
52669;DHT22;59898;52.786;6.892;2022-09-24T01:07:18;14.10;99.90
52669;DHT22;59898;52.786;6.892;2022-09-24T01:18:17;14.00;99.90
52669;DHT22;59898;52.786;6.892;2022-09-24T01:21:48;13.90;99.90
52669;DHT22;59898;52.786;6.892;2022-09-24T01:25:33;13.90;99.90
52669;DHT22;59898;52.786;6.892;2022-09-24T01:32:55;13.90;99.90
52669;DHT22;59898;52.786;6.892;2022-09-24T01:36:17;13.90;99.90
52669;DHT22;59898;52.786;6.892;2022-09-24T01:39:41;13.80;99.90
52669;DHT22;59898;52.786;6.892;2022-09-24T01:43:04;13.90;99.90
52669;DHT22;59898;52.786;6.892;2022-09-24T01:46:25;13.90;99.90
52669;DHT22;59898;52.786;6.892;2022-09-24T01:49:46;13.90;99.90
52669;DHT22;59898;52.786;6.892;2022-09-24T01:53:16;13.90;99.90
52669;DHT22;59898;52.786;6.892;2022-09-24T01:56:44;13.80;99.90
52669;DHT22;59898;52.786;6.892;2022-09-24T02:00:16;13.80;99.90
52669;DHT22;59898;52.786;6.892;2022-09-24T02:03:41;13.80;99.90
52669;DHT22;59898;52.786;6.892;2022-09-24T02:07:23;13.80;99.90
52669;DHT22;59898;52.786;6.892;2022-09-24T02:10:50;13.80;99.90
52669;DHT22;59898;52.786;6.892;2022-09-24T02:14:13;13.80;99.90
52669;DHT22;59898;52.786;6.892;2022-09-24T02:17:36;13.70;99.90
52669;DHT22;59898;52.786;6.892;2022-09-24T02:20:58;13.70;99.90
52669;DHT22;59898;52.786;6.892;2022-09-24T02:24:23;13.70;99.90
52669;DHT22;59898;52.786;6.892;2022-09-24T02:27:45;13.70;99.90
52669;DHT22;59898;52.786;6.892;2022-09-24T02:31:09;13.70;99.90
52669;DHT22;59898;52.786;6.892;2022-09-24T02:34:35;13.70;99.90
52669;DHT22;59898;52.786;6.892;2022-09-24T02:37:58;13.70;99.90
52669;DHT22;59898;52.786;6.892;2022-09-24T02:41:20;13.70;99.90
52669;DHT22;59898;52.786;6.892;2022-09-24T02:44:43;13.60;99.90
52669;DHT22;59898;52.786;6.892;2022-09-24T02:48:03;13.60;99.90
52669;DHT22;59898;52.786;6.892;2022-09-24T02:51:24;13.70;99.90
52669;DHT22;59898;52.786;6.892;2022-09-24T02:54:45;13.70;99.90
52669;DHT22;59898;52.786;6.892;2022-09-24T02:58:06;13.70;99.90
52669;DHT22;59898;52.786;6.892;2022-09-24T03:01:26;13.70;99.90
52669;DHT22;59898;52.786;6.892;2022-09-24T03:04:47;13.70;99.90
52669;DHT22;59898;52.786;6.892;2022-09-24T03:08:08;13.70;99.90
52669;DHT22;59898;52.786;6.892;2022-09-24T03:11:29;13.70;99.90
52669;DHT22;59898;52.786;6.892;2022-09-24T03:14:52;13.60;99.90
52669;DHT22;59898;52.786;6.892;2022-09-24T03:18:13;13.60;99.90
52669;DHT22;59898;52.786;6.892;2022-09-24T03:21:34;13.60;99.90
52669;DHT22;59898;52.786;6.892;2022-09-24T03:24:55;13.60;99.90
52669;DHT22;59898;52.786;6.892;2022-09-24T03:28:16;13.60;99.90
52669;DHT22;59898;52.786;6.892;2022-09-24T03:31:37;13.60;99.90
52669;DHT22;59898;52.786;6.892;2022-09-24T03:34:58;13.60;99.90
52669;DHT22;59898;52.786;6.892;2022-09-24T03:38:20;13.60;99.90
52669;DHT22;59898;52.786;6.892;2022-09-24T03:41:41;13.50;99.90
52669;DHT22;59898;52.786;6.892;2022-09-24T03:45:02;13.60;99.90
52669;DHT22;59898;52.786;6.892;2022-09-24T03:48:23;13.50;99.90
52669;DHT22;59898;52.786;6.892;2022-09-24T03:51:45;13.50;99.90
52669;DHT22;59898;52.786;6.892;2022-09-24T03:55:07;13.50;99.90
52669;DHT22;59898;52.786;6.892;2022-09-24T03:58:29;13.60;99.90
52669;DHT22;59898;52.786;6.892;2022-09-24T04:01:50;13.60;99.90
52669;DHT22;59898;52.786;6.892;2022-09-24T04:05:11;13.60;99.90
52669;DHT22;59898;52.786;6.892;2022-09-24T04:08:32;13.60;99.90
52669;DHT22;59898;52.786;6.892;2022-09-24T04:11:53;13.60;99.90
52669;DHT22;59898;52.786;6.892;2022-09-24T04:15:13;13.60;99.90
52669;DHT22;59898;52.786;6.892;2022-09-24T04:18:37;13.60;99.90
52669;DHT22;59898;52.786;6.892;2022-09-24T04:21:59;13.60;99.90
52669;DHT22;59898;52.786;6.892;2022-09-24T04:25:21;13.60;99.90
52669;DHT22;59898;52.786;6.892;2022-09-24T04:28:41;13.60;99.90
52669;DHT22;59898;52.786;6.892;2022-09-24T04:32:02;13.60;99.90
52669;DHT22;59898;52.786;6.892;2022-09-24T04:35:23;13.60;99.90
52669;DHT22;59898;52.786;6.892;2022-09-24T04:38:43;13.60;99.90
52669;DHT22;59898;52.786;6.892;2022-09-24T04:42:05;13.60;99.90
52669;DHT22;59898;52.786;6.892;2022-09-24T04:45:26;13.60;99.90
52669;DHT22;59898;52.786;6.892;2022-09-24T04:48:47;13.60;99.90
52669;DHT22;59898;52.786;6.892;2022-09-24T04:52:07;13.60;99.90
52669;DHT22;59898;52.786;6.892;2022-09-24T04:55:28;13.60;99.90
52669;DHT22;59898;52.786;6.892;2022-09-24T04:58:50;13.70;99.90
52669;DHT22;59898;52.786;6.892;2022-09-24T05:02:11;13.70;99.90
52669;DHT22;59898;52.786;6.892;2022-09-24T05:05:32;13.70;99.90
52669;DHT22;59898;52.786;6.892;2022-09-24T05:08:53;13.70;99.90
52669;DHT22;59898;52.786;6.892;2022-09-24T05:12:14;13.60;99.90
52669;DHT22;59898;52.786;6.892;2022-09-24T05:15:34;13.60;99.90
52669;DHT22;59898;52.786;6.892;2022-09-24T05:18:55;13.70;99.90
52669;DHT22;59898;52.786;6.892;2022-09-24T05:22:17;13.70;99.90
52669;DHT22;59898;52.786;6.892;2022-09-24T05:25:38;13.70;99.90
52669;DHT22;59898;52.786;6.892;2022-09-24T05:29:19;13.70;99.90
52669;DHT22;59898;52.786;6.892;2022-09-24T05:32:40;13.70;99.90
52669;DHT22;59898;52.786;6.892;2022-09-24T05:36:00;13.70;99.90
52669;DHT22;59898;52.786;6.892;2022-09-24T05:39:21;13.70;99.90
52669;DHT22;59898;52.786;6.892;2022-09-24T05:42:42;13.60;99.90
52669;DHT22;59898;52.786;6.892;2022-09-24T05:46:02;13.70;99.90
52669;DHT22;59898;52.786;6.892;2022-09-24T05:49:23;13.60;99.90
52669;DHT22;59898;52.786;6.892;2022-09-24T05:52:44;13.60;99.90
52669;DHT22;59898;52.786;6.892;2022-09-24T05:56:05;13.60;99.90
52669;DHT22;59898;52.786;6.892;2022-09-24T05:59:26;13.70;99.90
52669;DHT22;59898;52.786;6.892;2022-09-24T06:02:46;13.70;99.90
52669;DHT22;59898;52.786;6.892;2022-09-24T06:06:07;13.80;99.90
52669;DHT22;59898;52.786;6.892;2022-09-24T06:09:28;13.80;99.90
52669;DHT22;59898;52.786;6.892;2022-09-24T06:12:51;13.80;99.90
52669;DHT22;59898;52.786;6.892;2022-09-24T06:16:12;13.80;99.90
52669;DHT22;59898;52.786;6.892;2022-09-24T06:19:33;13.80;99.90
52669;DHT22;59898;52.786;6.892;2022-09-24T06:22:55;13.80;99.90
52669;DHT22;59898;52.786;6.892;2022-09-24T06:26:16;13.80;99.90
52669;DHT22;59898;52.786;6.892;2022-09-24T06:29:38;13.80;99.90
52669;DHT22;59898;52.786;6.892;2022-09-24T06:33:04;13.80;99.90
52669;DHT22;59898;52.786;6.892;2022-09-24T06:36:25;13.90;99.90
52669;DHT22;59898;52.786;6.892;2022-09-24T06:39:45;13.90;99.90
52669;DHT22;59898;52.786;6.892;2022-09-24T06:43:08;13.80;99.90
52669;DHT22;59898;52.786;6.892;2022-09-24T06:46:29;13.80;99.90
52669;DHT22;59898;52.786;6.892;2022-09-24T06:49:49;13.90;99.90
52669;DHT22;59898;52.786;6.892;2022-09-24T06:53:11;13.90;99.90
52669;DHT22;59898;52.786;6.892;2022-09-24T06:56:32;13.90;99.90
52669;DHT22;59898;52.786;6.892;2022-09-24T06:59:53;13.90;99.90
52669;DHT22;59898;52.786;6.892;2022-09-24T07:03:14;14.00;99.90
52669;DHT22;59898;52.786;6.892;2022-09-24T07:06:35;14.00;99.90
52669;DHT22;59898;52.786;6.892;2022-09-24T07:10:15;14.00;99.90
52669;DHT22;59898;52.786;6.892;2022-09-24T07:13:36;14.00;99.90
52669;DHT22;59898;52.786;6.892;2022-09-24T07:16:57;14.00;99.90
52669;DHT22;59898;52.786;6.892;2022-09-24T07:20:17;14.00;99.90
52669;DHT22;59898;52.786;6.892;2022-09-24T07:23:38;14.00;99.90
52669;DHT22;59898;52.786;6.892;2022-09-24T07:26:59;14.00;99.90
52669;DHT22;59898;52.786;6.892;2022-09-24T07:30:20;14.10;99.90
52669;DHT22;59898;52.786;6.892;2022-09-24T07:33:40;14.10;99.90
52669;DHT22;59898;52.786;6.892;2022-09-24T07:37:01;14.00;99.90
52669;DHT22;59898;52.786;6.892;2022-09-24T07:40:22;14.00;99.90
52669;DHT22;59898;52.786;6.892;2022-09-24T07:43:43;14.00;99.90
52669;DHT22;59898;52.786;6.892;2022-09-24T07:47:04;14.00;99.90
52669;DHT22;59898;52.786;6.892;2022-09-24T07:50:27;14.10;99.90
52669;DHT22;59898;52.786;6.892;2022-09-24T07:53:48;14.10;99.90
52669;DHT22;59898;52.786;6.892;2022-09-24T07:57:10;14.10;99.90
52669;DHT22;59898;52.786;6.892;2022-09-24T08:00:32;14.10;99.90
52669;DHT22;59898;52.786;6.892;2022-09-24T08:03:53;14.10;99.90
52669;DHT22;59898;52.786;6.892;2022-09-24T08:07:14;14.00;99.90
52669;DHT22;59898;52.786;6.892;2022-09-24T08:10:41;14.00;99.90
52669;DHT22;59898;52.786;6.892;2022-09-24T08:14:09;14.00;99.90
52669;DHT22;59898;52.786;6.892;2022-09-24T08:17:30;14.00;99.90
52669;DHT22;59898;52.786;6.892;2022-09-24T08:20:51;14.00;99.90
52669;DHT22;59898;52.786;6.892;2022-09-24T08:24:11;14.00;99.90
52669;DHT22;59898;52.786;6.892;2022-09-24T08:27:32;14.00;99.90
52669;DHT22;59898;52.786;6.892;2022-09-24T08:31:00;14.00;99.90
52669;DHT22;59898;52.786;6.892;2022-09-24T08:34:21;14.10;99.90
52669;DHT22;59898;52.786;6.892;2022-09-24T08:37:42;14.10;99.90
52669;DHT22;59898;52.786;6.892;2022-09-24T08:41:36;14.10;99.90
52669;DHT22;59898;52.786;6.892;2022-09-24T08:45:00;14.10;99.90
52669;DHT22;59898;52.786;6.892;2022-09-24T08:48:45;14.10;99.90
52669;DHT22;59898;52.786;6.892;2022-09-24T08:52:32;14.10;99.90
52669;DHT22;59898;52.786;6.892;2022-09-24T08:56:00;14.20;99.90
52669;DHT22;59898;52.786;6.892;2022-09-24T08:59:27;14.20;99.90
52669;DHT22;59898;52.786;6.892;2022-09-24T09:02:52;14.20;99.90
52669;DHT22;59898;52.786;6.892;2022-09-24T09:10:10;14.30;99.90
52669;DHT22;59898;52.786;6.892;2022-09-24T09:13:48;14.30;99.90
52669;DHT22;59898;52.786;6.892;2022-09-24T09:17:28;14.40;99.90
52669;DHT22;59898;52.786;6.892;2022-09-24T09:20:51;14.40;99.90
52669;DHT22;59898;52.786;6.892;2022-09-24T09:27:37;14.50;99.90
52669;DHT22;59898;52.786;6.892;2022-09-24T09:34:43;14.60;99.90
52669;DHT22;59898;52.786;6.892;2022-09-24T09:38:31;14.70;99.90
52669;DHT22;59898;52.786;6.892;2022-09-24T09:49:07;14.80;99.90
52669;DHT22;59898;52.786;6.892;2022-09-24T09:52:33;14.80;99.90
52669;DHT22;59898;52.786;6.892;2022-09-24T09:56:04;14.80;99.90
52669;DHT22;59898;52.786;6.892;2022-09-24T09:59:26;14.90;99.90
52669;DHT22;59898;52.786;6.892;2022-09-24T10:02:49;15.00;99.90
52669;DHT22;59898;52.786;6.892;2022-09-24T10:06:24;15.00;99.90
52669;DHT22;59898;52.786;6.892;2022-09-24T10:09:45;15.10;99.90
52669;DHT22;59898;52.786;6.892;2022-09-24T10:13:11;15.10;99.90
52669;DHT22;59898;52.786;6.892;2022-09-24T10:16:41;15.20;99.90
52669;DHT22;59898;52.786;6.892;2022-09-24T10:20:29;15.20;99.90
52669;DHT22;59898;52.786;6.892;2022-09-24T10:23:48;15.20;99.90
52669;DHT22;59898;52.786;6.892;2022-09-24T10:27:12;15.20;99.90
52669;DHT22;59898;52.786;6.892;2022-09-24T10:30:33;15.30;99.90
52669;DHT22;59898;52.786;6.892;2022-09-24T10:33:55;15.30;99.90
52669;DHT22;59898;52.786;6.892;2022-09-24T10:37:16;15.40;99.90
52669;DHT22;59898;52.786;6.892;2022-09-24T10:40:39;15.50;99.90
52669;DHT22;59898;52.786;6.892;2022-09-24T10:44:10;15.60;99.90
52669;DHT22;59898;52.786;6.892;2022-09-24T10:55:15;15.60;99.90
52669;DHT22;59898;52.786;6.892;2022-09-24T11:02:50;15.60;99.90
52669;DHT22;59898;52.786;6.892;2022-09-24T11:06:13;15.60;99.90
52669;DHT22;59898;52.786;6.892;2022-09-24T11:09:50;15.60;99.90
52669;DHT22;59898;52.786;6.892;2022-09-24T11:16:55;15.60;99.90
52669;DHT22;59898;52.786;6.892;2022-09-24T11:20:32;15.70;99.90
52669;DHT22;59898;52.786;6.892;2022-09-24T11:27:51;15.60;99.90
52669;DHT22;59898;52.786;6.892;2022-09-24T11:31:39;15.60;99.90
52669;DHT22;59898;52.786;6.892;2022-09-24T11:53:30;15.60;99.90
52669;DHT22;59898;52.786;6.892;2022-09-24T11:56:58;15.60;99.90
52669;DHT22;59898;52.786;6.892;2022-09-24T12:00:20;15.60;99.90
52669;DHT22;59898;52.786;6.892;2022-09-24T12:04:02;15.60;99.90
52669;DHT22;59898;52.786;6.892;2022-09-24T12:11:19;15.60;99.90
52669;DHT22;59898;52.786;6.892;2022-09-24T12:15:06;15.70;99.90
52669;DHT22;59898;52.786;6.892;2022-09-24T12:18:46;15.70;99.90
52669;DHT22;59898;52.786;6.892;2022-09-24T12:22:10;15.80;99.90
52669;DHT22;59898;52.786;6.892;2022-09-24T12:25:41;15.70;99.90
52669;DHT22;59898;52.786;6.892;2022-09-24T12:37:03;15.80;99.90
52669;DHT22;59898;52.786;6.892;2022-09-24T12:44:58;16.00;99.90
52669;DHT22;59898;52.786;6.892;2022-09-24T12:48:22;16.10;99.90
52669;DHT22;59898;52.786;6.892;2022-09-24T12:51:43;16.10;99.90
52669;DHT22;59898;52.786;6.892;2022-09-24T12:55:19;16.10;99.90
52669;DHT22;59898;52.786;6.892;2022-09-24T12:58:42;16.00;99.90
52669;DHT22;59898;52.786;6.892;2022-09-24T13:02:24;16.00;99.90
52669;DHT22;59898;52.786;6.892;2022-09-24T13:05:47;15.90;99.90
52669;DHT22;59898;52.786;6.892;2022-09-24T13:09:35;15.90;99.90
52669;DHT22;59898;52.786;6.892;2022-09-24T13:12:57;15.80;99.90
52669;DHT22;59898;52.786;6.892;2022-09-24T13:16:19;15.80;99.90
52669;DHT22;59898;52.786;6.892;2022-09-24T13:19:42;15.80;99.90
52669;DHT22;59898;52.786;6.892;2022-09-24T13:26:39;15.80;99.90
52669;DHT22;59898;52.786;6.892;2022-09-24T13:30:18;15.80;99.90
52669;DHT22;59898;52.786;6.892;2022-09-24T13:33:42;16.00;99.90
52669;DHT22;59898;52.786;6.892;2022-09-24T13:37:21;16.10;99.90
52669;DHT22;59898;52.786;6.892;2022-09-24T13:40:50;16.10;99.90
52669;DHT22;59898;52.786;6.892;2022-09-24T13:44:25;16.10;99.90
52669;DHT22;59898;52.786;6.892;2022-09-24T13:47:52;16.10;99.90
52669;DHT22;59898;52.786;6.892;2022-09-24T13:51:15;16.00;99.90
52669;DHT22;59898;52.786;6.892;2022-09-24T13:54:48;16.00;99.90
52669;DHT22;59898;52.786;6.892;2022-09-24T13:58:34;16.00;99.90
52669;DHT22;59898;52.786;6.892;2022-09-24T14:01:55;15.80;99.90
52669;DHT22;59898;52.786;6.892;2022-09-24T14:05:17;15.90;99.90
52669;DHT22;59898;52.786;6.892;2022-09-24T14:08:44;16.00;99.90
52669;DHT22;59898;52.786;6.892;2022-09-24T14:12:16;16.10;99.90
52669;DHT22;59898;52.786;6.892;2022-09-24T14:19:14;16.40;99.90
52669;DHT22;59898;52.786;6.892;2022-09-24T14:22:38;16.30;99.90
52669;DHT22;59898;52.786;6.892;2022-09-24T14:26:02;16.10;99.90
52669;DHT22;59898;52.786;6.892;2022-09-24T14:29:28;16.00;99.90
52669;DHT22;59898;52.786;6.892;2022-09-24T14:33:12;15.90;99.90
52669;DHT22;59898;52.786;6.892;2022-09-24T14:36:34;15.80;99.90
52669;DHT22;59898;52.786;6.892;2022-09-24T14:40:00;15.70;99.90
52669;DHT22;59898;52.786;6.892;2022-09-24T14:43:42;15.70;99.90
52669;DHT22;59898;52.786;6.892;2022-09-24T14:47:18;15.70;99.90
52669;DHT22;59898;52.786;6.892;2022-09-24T14:50:42;15.60;99.90
52669;DHT22;59898;52.786;6.892;2022-09-24T14:54:27;15.50;99.90
52669;DHT22;59898;52.786;6.892;2022-09-24T14:57:50;15.50;99.90
52669;DHT22;59898;52.786;6.892;2022-09-24T15:01:14;15.40;99.90
52669;DHT22;59898;52.786;6.892;2022-09-24T15:04:36;15.40;99.90
52669;DHT22;59898;52.786;6.892;2022-09-24T15:11:39;15.30;99.90
52669;DHT22;59898;52.786;6.892;2022-09-24T15:15:03;15.30;99.90
52669;DHT22;59898;52.786;6.892;2022-09-24T15:18:24;15.20;99.90
52669;DHT22;59898;52.786;6.892;2022-09-24T15:21:50;15.20;99.90
52669;DHT22;59898;52.786;6.892;2022-09-24T15:25:13;15.20;99.90
52669;DHT22;59898;52.786;6.892;2022-09-24T15:28:34;15.20;99.90
52669;DHT22;59898;52.786;6.892;2022-09-24T15:31:54;15.10;99.90
52669;DHT22;59898;52.786;6.892;2022-09-24T15:35:17;15.10;99.90
52669;DHT22;59898;52.786;6.892;2022-09-24T15:38:38;15.10;99.90
52669;DHT22;59898;52.786;6.892;2022-09-24T15:41:59;15.00;99.90
52669;DHT22;59898;52.786;6.892;2022-09-24T15:45:22;15.00;99.90
52669;DHT22;59898;52.786;6.892;2022-09-24T15:48:43;15.00;99.90
52669;DHT22;59898;52.786;6.892;2022-09-24T15:52:23;15.00;99.90
52669;DHT22;59898;52.786;6.892;2022-09-24T15:55:46;14.90;99.90
52669;DHT22;59898;52.786;6.892;2022-09-24T15:59:12;14.90;99.90
52669;DHT22;59898;52.786;6.892;2022-09-24T16:02:33;14.90;99.90
52669;DHT22;59898;52.786;6.892;2022-09-24T16:05:55;14.90;99.90
52669;DHT22;59898;52.786;6.892;2022-09-24T16:09:16;14.90;99.90
52669;DHT22;59898;52.786;6.892;2022-09-24T16:12:37;14.90;99.90
52669;DHT22;59898;52.786;6.892;2022-09-24T16:15:58;14.90;99.90
52669;DHT22;59898;52.786;6.892;2022-09-24T16:19:19;14.90;99.90
52669;DHT22;59898;52.786;6.892;2022-09-24T16:22:39;14.90;99.90
52669;DHT22;59898;52.786;6.892;2022-09-24T16:26:00;14.90;99.90
52669;DHT22;59898;52.786;6.892;2022-09-24T16:29:21;14.90;99.90
52669;DHT22;59898;52.786;6.892;2022-09-24T16:32:42;14.90;99.90
52669;DHT22;59898;52.786;6.892;2022-09-24T16:36:06;14.90;99.90
52669;DHT22;59898;52.786;6.892;2022-09-24T16:39:27;14.90;99.90
52669;DHT22;59898;52.786;6.892;2022-09-24T16:42:48;14.90;99.90
52669;DHT22;59898;52.786;6.892;2022-09-24T16:46:09;14.90;99.90
52669;DHT22;59898;52.786;6.892;2022-09-24T16:49:29;14.90;99.90
52669;DHT22;59898;52.786;6.892;2022-09-24T16:52:50;14.80;99.90
52669;DHT22;59898;52.786;6.892;2022-09-24T16:56:15;14.80;99.90
52669;DHT22;59898;52.786;6.892;2022-09-24T16:59:36;14.80;99.90
52669;DHT22;59898;52.786;6.892;2022-09-24T17:02:57;14.80;99.90
52669;DHT22;59898;52.786;6.892;2022-09-24T17:06:24;14.80;99.90
52669;DHT22;59898;52.786;6.892;2022-09-24T17:09:45;14.80;99.90
52669;DHT22;59898;52.786;6.892;2022-09-24T17:13:25;14.70;99.90
52669;DHT22;59898;52.786;6.892;2022-09-24T17:16:45;14.70;99.90
52669;DHT22;59898;52.786;6.892;2022-09-24T17:20:07;14.70;99.90
52669;DHT22;59898;52.786;6.892;2022-09-24T17:23:28;14.60;99.90
52669;DHT22;59898;52.786;6.892;2022-09-24T17:26:49;14.50;99.90
52669;DHT22;59898;52.786;6.892;2022-09-24T17:30:10;14.40;99.90
52669;DHT22;59898;52.786;6.892;2022-09-24T17:33:31;14.40;99.90
52669;DHT22;59898;52.786;6.892;2022-09-24T17:36:52;14.40;99.90
52669;DHT22;59898;52.786;6.892;2022-09-24T17:40:13;14.30;99.90
52669;DHT22;59898;52.786;6.892;2022-09-24T17:43:35;14.30;99.90
52669;DHT22;59898;52.786;6.892;2022-09-24T17:46:56;14.30;99.90
52669;DHT22;59898;52.786;6.892;2022-09-24T17:50:17;14.30;99.90
52669;DHT22;59898;52.786;6.892;2022-09-24T17:53:38;14.20;99.90
52669;DHT22;59898;52.786;6.892;2022-09-24T17:56:59;14.20;99.90
52669;DHT22;59898;52.786;6.892;2022-09-24T18:00:21;14.20;99.90
52669;DHT22;59898;52.786;6.892;2022-09-24T18:03:42;14.20;99.90
52669;DHT22;59898;52.786;6.892;2022-09-24T18:07:03;14.20;99.90
52669;DHT22;59898;52.786;6.892;2022-09-24T18:10:24;14.20;99.90
52669;DHT22;59898;52.786;6.892;2022-09-24T18:13:55;14.20;99.90
52669;DHT22;59898;52.786;6.892;2022-09-24T18:17:16;14.20;99.90
52669;DHT22;59898;52.786;6.892;2022-09-24T18:20:37;14.20;99.90
52669;DHT22;59898;52.786;6.892;2022-09-24T18:24:01;14.20;99.90
52669;DHT22;59898;52.786;6.892;2022-09-24T18:27:22;14.20;99.90
52669;DHT22;59898;52.786;6.892;2022-09-24T18:30:43;14.20;99.90
52669;DHT22;59898;52.786;6.892;2022-09-24T18:34:05;14.10;99.90
52669;DHT22;59898;52.786;6.892;2022-09-24T18:37:26;14.10;99.90
52669;DHT22;59898;52.786;6.892;2022-09-24T18:40:47;14.10;99.90
52669;DHT22;59898;52.786;6.892;2022-09-24T18:44:08;14.10;99.90
52669;DHT22;59898;52.786;6.892;2022-09-24T18:47:29;14.10;99.90
52669;DHT22;59898;52.786;6.892;2022-09-24T18:50:50;14.10;99.90
52669;DHT22;59898;52.786;6.892;2022-09-24T18:54:13;14.10;99.90
52669;DHT22;59898;52.786;6.892;2022-09-24T18:57:34;14.10;99.90
52669;DHT22;59898;52.786;6.892;2022-09-24T19:01:02;14.00;99.90
52669;DHT22;59898;52.786;6.892;2022-09-24T19:04:23;14.00;99.90
52669;DHT22;59898;52.786;6.892;2022-09-24T19:07:43;14.00;99.90
52669;DHT22;59898;52.786;6.892;2022-09-24T19:11:07;14.00;99.90
52669;DHT22;59898;52.786;6.892;2022-09-24T19:14:29;14.00;99.90
52669;DHT22;59898;52.786;6.892;2022-09-24T19:17:50;14.00;99.90
52669;DHT22;59898;52.786;6.892;2022-09-24T19:21:13;13.90;99.90
52669;DHT22;59898;52.786;6.892;2022-09-24T19:24:34;13.90;99.90
52669;DHT22;59898;52.786;6.892;2022-09-24T19:27:55;13.90;99.90
52669;DHT22;59898;52.786;6.892;2022-09-24T19:31:24;13.80;99.90
52669;DHT22;59898;52.786;6.892;2022-09-24T19:34:44;13.80;99.90
52669;DHT22;59898;52.786;6.892;2022-09-24T19:38:05;13.80;99.90
52669;DHT22;59898;52.786;6.892;2022-09-24T19:41:26;13.80;99.90
52669;DHT22;59898;52.786;6.892;2022-09-24T19:44:48;13.80;99.90
52669;DHT22;59898;52.786;6.892;2022-09-24T19:48:11;13.80;99.90
52669;DHT22;59898;52.786;6.892;2022-09-24T19:51:32;13.80;99.90
52669;DHT22;59898;52.786;6.892;2022-09-24T19:54:53;13.80;99.90
52669;DHT22;59898;52.786;6.892;2022-09-24T19:58:14;13.80;99.90
52669;DHT22;59898;52.786;6.892;2022-09-24T20:01:35;13.80;99.90
52669;DHT22;59898;52.786;6.892;2022-09-24T20:04:56;13.70;99.90
52669;DHT22;59898;52.786;6.892;2022-09-24T20:08:17;13.70;99.90
52669;DHT22;59898;52.786;6.892;2022-09-24T20:11:38;13.70;99.90
52669;DHT22;59898;52.786;6.892;2022-09-24T20:14:58;13.70;99.90
52669;DHT22;59898;52.786;6.892;2022-09-24T20:18:19;13.70;99.90
52669;DHT22;59898;52.786;6.892;2022-09-24T20:21:41;13.60;99.90
52669;DHT22;59898;52.786;6.892;2022-09-24T20:25:01;13.60;99.90
52669;DHT22;59898;52.786;6.892;2022-09-24T20:28:22;13.60;99.90
52669;DHT22;59898;52.786;6.892;2022-09-24T20:31:44;13.60;99.90
52669;DHT22;59898;52.786;6.892;2022-09-24T20:35:10;13.50;99.90
52669;DHT22;59898;52.786;6.892;2022-09-24T20:38:32;13.50;99.90
52669;DHT22;59898;52.786;6.892;2022-09-24T20:41:54;13.50;99.90
52669;DHT22;59898;52.786;6.892;2022-09-24T20:45:15;13.50;99.90
52669;DHT22;59898;52.786;6.892;2022-09-24T20:48:36;13.50;99.90
52669;DHT22;59898;52.786;6.892;2022-09-24T20:51:57;13.50;99.90
52669;DHT22;59898;52.786;6.892;2022-09-24T20:55:18;13.50;99.90
52669;DHT22;59898;52.786;6.892;2022-09-24T20:58:39;13.50;99.90
52669;DHT22;59898;52.786;6.892;2022-09-24T21:02:00;13.50;99.90
52669;DHT22;59898;52.786;6.892;2022-09-24T21:05:22;13.50;99.90
52669;DHT22;59898;52.786;6.892;2022-09-24T21:08:44;13.50;99.90
52669;DHT22;59898;52.786;6.892;2022-09-24T21:12:05;13.50;99.90
52669;DHT22;59898;52.786;6.892;2022-09-24T21:15:28;13.50;99.90
52669;DHT22;59898;52.786;6.892;2022-09-24T21:18:49;13.40;99.90
52669;DHT22;59898;52.786;6.892;2022-09-24T21:22:13;13.40;99.90
52669;DHT22;59898;52.786;6.892;2022-09-24T21:25:34;13.40;99.90
52669;DHT22;59898;52.786;6.892;2022-09-24T21:28:59;13.40;99.90
52669;DHT22;59898;52.786;6.892;2022-09-24T21:32:20;13.30;99.90
52669;DHT22;59898;52.786;6.892;2022-09-24T21:35:40;13.30;99.90
52669;DHT22;59898;52.786;6.892;2022-09-24T21:39:09;13.20;99.90
52669;DHT22;59898;52.786;6.892;2022-09-24T21:42:32;13.20;99.90
52669;DHT22;59898;52.786;6.892;2022-09-24T21:46:04;13.10;99.90
52669;DHT22;59898;52.786;6.892;2022-09-24T21:49:25;13.00;99.90
52669;DHT22;59898;52.786;6.892;2022-09-24T21:52:47;13.00;99.90
52669;DHT22;59898;52.786;6.892;2022-09-24T21:56:08;13.00;99.90
52669;DHT22;59898;52.786;6.892;2022-09-24T21:59:28;12.90;99.90
52669;DHT22;59898;52.786;6.892;2022-09-24T22:03:09;12.90;99.90
52669;DHT22;59898;52.786;6.892;2022-09-24T22:06:30;12.70;99.90
52669;DHT22;59898;52.786;6.892;2022-09-24T22:09:50;12.70;99.90
52669;DHT22;59898;52.786;6.892;2022-09-24T22:13:11;12.60;99.90
52669;DHT22;59898;52.786;6.892;2022-09-24T22:16:35;12.50;99.90
52669;DHT22;59898;52.786;6.892;2022-09-24T22:19:56;12.50;99.90
52669;DHT22;59898;52.786;6.892;2022-09-24T22:23:17;12.50;99.90
52669;DHT22;59898;52.786;6.892;2022-09-24T22:26:38;12.40;99.90
52669;DHT22;59898;52.786;6.892;2022-09-24T22:29:59;12.40;99.90
52669;DHT22;59898;52.786;6.892;2022-09-24T22:33:21;12.40;99.90
52669;DHT22;59898;52.786;6.892;2022-09-24T22:37:03;12.40;99.90
52669;DHT22;59898;52.786;6.892;2022-09-24T22:40:24;12.30;99.90
52669;DHT22;59898;52.786;6.892;2022-09-24T22:43:45;12.30;99.90
52669;DHT22;59898;52.786;6.892;2022-09-24T22:47:06;12.20;99.90
52669;DHT22;59898;52.786;6.892;2022-09-24T22:50:26;12.20;99.90
52669;DHT22;59898;52.786;6.892;2022-09-24T22:53:47;12.20;99.90
52669;DHT22;59898;52.786;6.892;2022-09-24T22:57:08;12.10;99.90
52669;DHT22;59898;52.786;6.892;2022-09-24T23:00:28;12.10;99.90
52669;DHT22;59898;52.786;6.892;2022-09-24T23:03:50;12.10;99.90